EZY14HB LEIB-EGGD
Flight info
| Callsign | EZY14HB |
|---|---|
| Flight time | 1h 58m |
| Altitude | 30000 |
| Route | LEIB EPAMA4E EPAMA N856 UMURE DCT XIKEN DCT KARES DCT ARBEK DCT REBUL DCT USKAR DCT MOPAS DCT GIROM DCT AGN DCT SECHE DCT UVELI DCT CNA DCT MANAK DCT MUREL DCT NOZHU DCT SHIRI DCT TOJAQ TOJAQ2B EGGD |
| Aircraft | A21N/M-SDE2E3FGHIRWXY/LB1 |
Departure
| Time | 2026-05-05 16:49 |
|---|---|
| Airport | Ibiza Airport (LEIB) |
Arrival
| Time | 2026-05-05 18:47 |
|---|---|
| Airport | Bristol Airport (EGGD) |
| Time | Latitude | Longitude | Altitude | Speed | Heading |
|---|---|---|---|---|---|
| 2026-05-05 16:24 | 38.87562 | 1.36918 | 13 ft | 0 kts | 333° |
| 2026-05-05 16:36 | 38.87547 | 1.36929 | 13 ft | 4 kts | 326° |
| 2026-05-05 16:37 | 38.87525 | 1.36950 | 14 ft | 4 kts | 323° |
| 2026-05-05 16:37 | 38.87507 | 1.36963 | 13 ft | 4 kts | 26° |
| 2026-05-05 16:37 | 38.87505 | 1.36963 | 13 ft | 0 kts | 62° |
| 2026-05-05 16:41 | 38.87511 | 1.36978 | 12 ft | 3 kts | 62° |
| 2026-05-05 16:42 | 38.87526 | 1.37013 | 12 ft | 6 kts | 62° |
| 2026-05-05 16:42 | 38.87530 | 1.37023 | 12 ft | 6 kts | 62° |
| 2026-05-05 16:42 | 38.87535 | 1.37034 | 12 ft | 7 kts | 62° |
| 2026-05-05 16:42 | 38.87561 | 1.37097 | 13 ft | 9 kts | 62° |
| 2026-05-05 16:43 | 38.87595 | 1.37178 | 12 ft | 11 kts | 62° |
| 2026-05-05 16:43 | 38.87635 | 1.37276 | 12 ft | 14 kts | 63° |
| 2026-05-05 16:43 | 38.87685 | 1.37401 | 12 ft | 14 kts | 63° |
| 2026-05-05 16:43 | 38.87692 | 1.37470 | 12 ft | 6 kts | 113° |
| 2026-05-05 16:44 | 38.87653 | 1.37508 | 12 ft | 8 kts | 152° |
| 2026-05-05 16:44 | 38.87593 | 1.37549 | 12 ft | 11 kts | 152° |
| 2026-05-05 16:44 | 38.87561 | 1.37581 | 12 ft | 2 kts | 92° |
| 2026-05-05 16:44 | 38.87581 | 1.37612 | 13 ft | 6 kts | 44° |
| 2026-05-05 16:45 | 38.87610 | 1.37664 | 12 ft | 8 kts | 57° |
| 2026-05-05 16:45 | 38.87646 | 1.37735 | 12 ft | 11 kts | 57° |
| 2026-05-05 16:45 | 38.87682 | 1.37821 | 12 ft | 12 kts | 65° |
| 2026-05-05 16:45 | 38.87723 | 1.37924 | 12 ft | 14 kts | 63° |
| 2026-05-05 16:46 | 38.87771 | 1.38040 | 12 ft | 16 kts | 61° |
| 2026-05-05 16:46 | 38.87827 | 1.38173 | 12 ft | 18 kts | 61° |
| 2026-05-05 16:46 | 38.87890 | 1.38322 | 12 ft | 20 kts | 61° |
| 2026-05-05 16:46 | 38.87958 | 1.38487 | 12 ft | 22 kts | 63° |
| 2026-05-05 16:47 | 38.87998 | 1.38587 | 13 ft | 17 kts | 70° |
| 2026-05-05 16:47 | 38.87964 | 1.38659 | 13 ft | 0 kts | 152° |
| 2026-05-05 16:47 | 38.87960 | 1.38662 | 13 ft | 1 kts | 152° |
| 2026-05-05 16:47 | 38.87958 | 1.38663 | 13 ft | 0 kts | 152° |
| 2026-05-05 16:48 | 38.87942 | 1.38674 | 14 ft | 5 kts | 153° |
| 2026-05-05 16:48 | 38.87887 | 1.38695 | 15 ft | 10 kts | 185° |
| 2026-05-05 16:48 | 38.87830 | 1.38636 | 14 ft | 19 kts | 239° |
| 2026-05-05 16:48 | 38.87621 | 1.38148 | 18 ft | 110 kts | 241° |
| 2026-05-05 16:49 | 38.87118 | 1.36917 | 61 ft | 189 kts | 242° |
| 2026-05-05 16:49 | 38.86457 | 1.35304 | 667 ft | 221 kts | 242° |
| 2026-05-05 16:49 | 38.85708 | 1.33473 | 1633 ft | 234 kts | 242° |
| 2026-05-05 16:49 | 38.84959 | 1.31634 | 3010 ft | 231 kts | 242° |
| 2026-05-05 16:50 | 38.84245 | 1.29879 | 4419 ft | 210 kts | 242° |
| 2026-05-05 16:50 | 38.83633 | 1.28250 | 5370 ft | 199 kts | 247° |
| 2026-05-05 16:50 | 38.83276 | 1.26539 | 5855 ft | 201 kts | 266° |
| 2026-05-05 16:50 | 38.83526 | 1.24780 | 5985 ft | 204 kts | 295° |
| 2026-05-05 16:51 | 38.84419 | 1.23388 | 5998 ft | 209 kts | 317° |
| 2026-05-05 16:51 | 38.85589 | 1.22261 | 5993 ft | 212 kts | 321° |
| 2026-05-05 16:51 | 38.86803 | 1.21184 | 5992 ft | 212 kts | 322° |
| 2026-05-05 16:51 | 38.88017 | 1.20101 | 5988 ft | 212 kts | 321° |
| 2026-05-05 16:52 | 38.89222 | 1.19011 | 5990 ft | 211 kts | 321° |
| 2026-05-05 16:52 | 38.90416 | 1.17918 | 5988 ft | 210 kts | 321° |
| 2026-05-05 16:52 | 38.91621 | 1.16854 | 5990 ft | 211 kts | 326° |
| 2026-05-05 16:52 | 38.92990 | 1.16145 | 5984 ft | 215 kts | 345° |
| 2026-05-05 16:53 | 38.94494 | 1.16142 | 6215 ft | 220 kts | 5° |
| 2026-05-05 16:53 | 38.96002 | 1.16513 | 6773 ft | 220 kts | 1° |
| 2026-05-05 16:53 | 38.97530 | 1.16711 | 7414 ft | 222 kts | 0° |
| 2026-05-05 16:53 | 38.99085 | 1.16879 | 7943 ft | 226 kts | 359° |
| 2026-05-05 16:54 | 39.00666 | 1.17019 | 8430 ft | 229 kts | 358° |
| 2026-05-05 16:54 | 39.02272 | 1.17146 | 8954 ft | 233 kts | 358° |
| 2026-05-05 16:54 | 39.03885 | 1.17266 | 9463 ft | 236 kts | 358° |
| 2026-05-05 16:54 | 39.05540 | 1.17390 | 9969 ft | 240 kts | 358° |
| 2026-05-05 16:55 | 39.07218 | 1.17517 | 10447 ft | 243 kts | 357° |
| 2026-05-05 16:55 | 39.08918 | 1.17649 | 10931 ft | 246 kts | 357° |
| 2026-05-05 16:55 | 39.10641 | 1.17786 | 11423 ft | 249 kts | 357° |
| 2026-05-05 16:55 | 39.12379 | 1.17925 | 11930 ft | 251 kts | 357° |
| 2026-05-05 16:56 | 39.14134 | 1.18066 | 12436 ft | 254 kts | 356° |
| 2026-05-05 16:56 | 39.15906 | 1.18209 | 12952 ft | 257 kts | 356° |
| 2026-05-05 16:56 | 39.17738 | 1.18351 | 13489 ft | 275 kts | 356° |
| 2026-05-05 16:56 | 39.19735 | 1.18493 | 13981 ft | 300 kts | 356° |
| 2026-05-05 16:57 | 39.21906 | 1.18648 | 14456 ft | 325 kts | 357° |
| 2026-05-05 16:57 | 39.24225 | 1.18821 | 14930 ft | 349 kts | 357° |
| 2026-05-05 16:57 | 39.26723 | 1.19017 | 15410 ft | 371 kts | 358° |
| 2026-05-05 16:57 | 39.29375 | 1.19233 | 15904 ft | 391 kts | 358° |
| 2026-05-05 16:58 | 39.32153 | 1.19462 | 16397 ft | 409 kts | 358° |
| 2026-05-05 16:58 | 39.35052 | 1.19704 | 16932 ft | 424 kts | 358° |
| 2026-05-05 16:58 | 39.37999 | 1.19950 | 17452 ft | 437 kts | 358° |
| 2026-05-05 16:58 | 39.41064 | 1.20206 | 17980 ft | 448 kts | 358° |
| 2026-05-05 16:59 | 39.44217 | 1.20467 | 18463 ft | 457 kts | 358° |
| 2026-05-05 16:59 | 39.47416 | 1.20732 | 18929 ft | 465 kts | 358° |
| 2026-05-05 16:59 | 39.50664 | 1.21001 | 19406 ft | 469 kts | 358° |
| 2026-05-05 16:59 | 39.53931 | 1.21272 | 19888 ft | 472 kts | 357° |
| 2026-05-05 17:00 | 39.57225 | 1.21544 | 20381 ft | 475 kts | 357° |
| 2026-05-05 17:00 | 39.60539 | 1.21817 | 20912 ft | 480 kts | 357° |
| 2026-05-05 17:00 | 39.63880 | 1.22089 | 21416 ft | 484 kts | 356° |
| 2026-05-05 17:00 | 39.67260 | 1.22364 | 21941 ft | 488 kts | 356° |
| 2026-05-05 17:01 | 39.70654 | 1.22640 | 22470 ft | 491 kts | 356° |
| 2026-05-05 17:01 | 39.74073 | 1.22919 | 23010 ft | 494 kts | 356° |
| 2026-05-05 17:01 | 39.77474 | 1.23197 | 23537 ft | 497 kts | 356° |
| 2026-05-05 17:01 | 39.80936 | 1.23480 | 24024 ft | 499 kts | 356° |
| 2026-05-05 17:02 | 39.84420 | 1.23767 | 24540 ft | 501 kts | 356° |
| 2026-05-05 17:02 | 39.87894 | 1.24054 | 25137 ft | 501 kts | 356° |
| 2026-05-05 17:02 | 39.91373 | 1.24342 | 25751 ft | 501 kts | 355° |
| 2026-05-05 17:02 | 39.94863 | 1.24631 | 26271 ft | 503 kts | 355° |
| 2026-05-05 17:03 | 39.98371 | 1.24917 | 26699 ft | 507 kts | 355° |
| 2026-05-05 17:03 | 40.01904 | 1.25206 | 27135 ft | 509 kts | 355° |
| 2026-05-05 17:03 | 40.05446 | 1.25496 | 27628 ft | 511 kts | 355° |
| 2026-05-05 17:03 | 40.09005 | 1.25790 | 28082 ft | 512 kts | 355° |
| 2026-05-05 17:04 | 40.12561 | 1.26086 | 28546 ft | 512 kts | 355° |
| 2026-05-05 17:04 | 40.16110 | 1.26383 | 29015 ft | 511 kts | 355° |
| 2026-05-05 17:04 | 40.19660 | 1.26679 | 29493 ft | 510 kts | 355° |
| 2026-05-05 17:04 | 40.23145 | 1.26970 | 29866 ft | 507 kts | 355° |
| 2026-05-05 17:05 | 40.30215 | 1.27556 | 29890 ft | 512 kts | 355° |
| 2026-05-05 17:05 | 40.37284 | 1.27586 | 29893 ft | 501 kts | 345° |
| 2026-05-05 17:06 | 40.44239 | 1.26782 | 29893 ft | 502 kts | 346° |
| 2026-05-05 17:06 | 40.51186 | 1.25880 | 29893 ft | 502 kts | 344° |
| 2026-05-05 17:07 | 40.58102 | 1.24933 | 29892 ft | 503 kts | 344° |
| 2026-05-05 17:07 | 40.65070 | 1.23975 | 29892 ft | 503 kts | 344° |
| 2026-05-05 17:08 | 40.72034 | 1.23020 | 29892 ft | 503 kts | 344° |
| 2026-05-05 17:08 | 40.78956 | 1.22073 | 29897 ft | 503 kts | 344° |
| 2026-05-05 17:09 | 40.85913 | 1.21119 | 29901 ft | 503 kts | 344° |
| 2026-05-05 17:09 | 40.92877 | 1.20164 | 29921 ft | 502 kts | 343° |
| 2026-05-05 17:10 | 40.99823 | 1.19207 | 29908 ft | 502 kts | 343° |
| 2026-05-05 17:10 | 41.06783 | 1.18245 | 29911 ft | 502 kts | 343° |
| 2026-05-05 17:11 | 41.13735 | 1.17283 | 29940 ft | 502 kts | 344° |
| 2026-05-05 17:11 | 41.20730 | 1.16456 | 29911 ft | 505 kts | 345° |
| 2026-05-05 17:12 | 41.27701 | 1.15750 | 29911 ft | 505 kts | 346° |
| 2026-05-05 17:12 | 41.34710 | 1.15038 | 29957 ft | 505 kts | 346° |
| 2026-05-05 17:13 | 41.41710 | 1.14309 | 29914 ft | 503 kts | 347° |
| 2026-05-05 17:13 | 41.48672 | 1.13580 | 29906 ft | 501 kts | 347° |
| 2026-05-05 17:14 | 41.55611 | 1.12850 | 29903 ft | 500 kts | 347° |
| 2026-05-05 17:14 | 41.62540 | 1.12117 | 29900 ft | 499 kts | 348° |
| 2026-05-05 17:15 | 41.69454 | 1.11384 | 29916 ft | 498 kts | 348° |
| 2026-05-05 17:15 | 41.76328 | 1.10654 | 29929 ft | 498 kts | 348° |
| 2026-05-05 17:16 | 41.83248 | 1.09915 | 29941 ft | 499 kts | 349° |
| 2026-05-05 17:16 | 41.90171 | 1.09177 | 29951 ft | 499 kts | 349° |
| 2026-05-05 17:17 | 41.97094 | 1.08438 | 29956 ft | 499 kts | 349° |
| 2026-05-05 17:17 | 42.04017 | 1.07695 | 29948 ft | 500 kts | 349° |
| 2026-05-05 17:18 | 42.10969 | 1.06949 | 29939 ft | 500 kts | 349° |
| 2026-05-05 17:18 | 42.17854 | 1.06208 | 29935 ft | 500 kts | 349° |
| 2026-05-05 17:19 | 42.24793 | 1.05461 | 29922 ft | 500 kts | 350° |
| 2026-05-05 17:19 | 42.31720 | 1.04714 | 29934 ft | 500 kts | 350° |
| 2026-05-05 17:20 | 42.38664 | 1.03965 | 30247 ft | 498 kts | 350° |
| 2026-05-05 17:20 | 42.42123 | 1.03592 | 30524 ft | 497 kts | 351° |
| 2026-05-05 17:20 | 42.45573 | 1.03219 | 30782 ft | 496 kts | 351° |
| 2026-05-05 17:21 | 42.48981 | 1.02850 | 31014 ft | 496 kts | 351° |
| 2026-05-05 17:21 | 42.52418 | 1.02479 | 31256 ft | 496 kts | 351° |
| 2026-05-05 17:21 | 42.55864 | 1.02104 | 31519 ft | 496 kts | 350° |
| 2026-05-05 17:22 | 42.62715 | 1.01353 | 31963 ft | 492 kts | 351° |
| 2026-05-05 17:22 | 42.69555 | 1.00598 | 31975 ft | 494 kts | 351° |
| 2026-05-05 17:23 | 42.76412 | 0.99844 | 31969 ft | 494 kts | 351° |
| 2026-05-05 17:23 | 42.83268 | 0.99090 | 31976 ft | 494 kts | 351° |
| 2026-05-05 17:24 | 42.90134 | 0.98330 | 31976 ft | 494 kts | 351° |
| 2026-05-05 17:24 | 42.96981 | 0.97576 | 31977 ft | 494 kts | 351° |
| 2026-05-05 17:25 | 43.03788 | 0.96826 | 31989 ft | 493 kts | 351° |
| 2026-05-05 17:25 | 43.10671 | 0.96066 | 31982 ft | 492 kts | 351° |
| 2026-05-05 17:26 | 43.17471 | 0.95311 | 31977 ft | 492 kts | 351° |
| 2026-05-05 17:26 | 43.24317 | 0.94549 | 31981 ft | 492 kts | 351° |
| 2026-05-05 17:27 | 43.31145 | 0.93786 | 31976 ft | 491 kts | 351° |
| 2026-05-05 17:27 | 43.37919 | 0.93029 | 31969 ft | 491 kts | 351° |
| 2026-05-05 17:28 | 43.44736 | 0.92264 | 31974 ft | 491 kts | 352° |
| 2026-05-05 17:28 | 43.51553 | 0.91499 | 31968 ft | 492 kts | 352° |
| 2026-05-05 17:29 | 43.58376 | 0.90732 | 31965 ft | 492 kts | 352° |
| 2026-05-05 17:29 | 43.65200 | 0.89963 | 31964 ft | 491 kts | 352° |
| 2026-05-05 17:30 | 43.72025 | 0.89191 | 31957 ft | 492 kts | 352° |
| 2026-05-05 17:30 | 43.78843 | 0.88419 | 31952 ft | 492 kts | 352° |
| 2026-05-05 17:31 | 43.85669 | 0.87633 | 31951 ft | 491 kts | 351° |
| 2026-05-05 17:31 | 43.88993 | 0.86697 | 31949 ft | 486 kts | 339° |
| 2026-05-05 17:31 | 43.92150 | 0.85063 | 31948 ft | 483 kts | 334° |
| 2026-05-05 17:32 | 43.98258 | 0.81346 | 31953 ft | 482 kts | 332° |
| 2026-05-05 17:32 | 44.04332 | 0.77368 | 31962 ft | 482 kts | 331° |
| 2026-05-05 17:33 | 44.10393 | 0.73382 | 31967 ft | 482 kts | 332° |
| 2026-05-05 17:33 | 44.16475 | 0.69414 | 31964 ft | 482 kts | 332° |
| 2026-05-05 17:34 | 44.22570 | 0.65450 | 31973 ft | 482 kts | 332° |
| 2026-05-05 17:34 | 44.28643 | 0.61495 | 31958 ft | 482 kts | 332° |
| 2026-05-05 17:35 | 44.33697 | 0.58195 | 31931 ft | 482 kts | 332° |
| 2026-05-05 17:35 | 44.40764 | 0.53570 | 31941 ft | 482 kts | 332° |
| 2026-05-05 17:36 | 44.45857 | 0.50223 | 31938 ft | 482 kts | 332° |
| 2026-05-05 17:36 | 44.51924 | 0.46205 | 31936 ft | 482 kts | 332° |
| 2026-05-05 17:37 | 44.57943 | 0.42204 | 31942 ft | 482 kts | 332° |
| 2026-05-05 17:37 | 44.64015 | 0.38159 | 31954 ft | 482 kts | 333° |
| 2026-05-05 17:38 | 44.70072 | 0.34118 | 31938 ft | 481 kts | 333° |
| 2026-05-05 17:38 | 44.76114 | 0.30076 | 31939 ft | 481 kts | 333° |
| 2026-05-05 17:39 | 44.82157 | 0.26025 | 31934 ft | 481 kts | 333° |
| 2026-05-05 17:39 | 44.88160 | 0.21990 | 31935 ft | 481 kts | 333° |
| 2026-05-05 17:40 | 44.94203 | 0.17921 | 31934 ft | 481 kts | 333° |
| 2026-05-05 17:40 | 45.00237 | 0.13847 | 31928 ft | 481 kts | 333° |
| 2026-05-05 17:41 | 45.06270 | 0.09764 | 31928 ft | 481 kts | 333° |
| 2026-05-05 17:41 | 45.12309 | 0.05668 | 31926 ft | 481 kts | 333° |
| 2026-05-05 17:42 | 45.18338 | 0.01569 | 31923 ft | 481 kts | 333° |
| 2026-05-05 17:42 | 45.24347 | -0.02528 | 31923 ft | 481 kts | 334° |
| 2026-05-05 17:43 | 45.30382 | -0.06651 | 31919 ft | 482 kts | 333° |
| 2026-05-05 17:43 | 45.36443 | -0.10801 | 31919 ft | 482 kts | 334° |
| 2026-05-05 17:44 | 45.42484 | -0.14948 | 31912 ft | 482 kts | 334° |
| 2026-05-05 17:44 | 45.48533 | -0.19110 | 31913 ft | 483 kts | 334° |
| 2026-05-05 17:45 | 45.54578 | -0.23279 | 31910 ft | 482 kts | 334° |
| 2026-05-05 17:45 | 45.60586 | -0.27433 | 31912 ft | 483 kts | 334° |
| 2026-05-05 17:46 | 45.66484 | -0.31994 | 31912 ft | 482 kts | 324° |
| 2026-05-05 17:46 | 45.71881 | -0.37729 | 31899 ft | 484 kts | 322° |
| 2026-05-05 17:47 | 45.77157 | -0.43678 | 31905 ft | 482 kts | 321° |
| 2026-05-05 17:47 | 45.82392 | -0.49653 | 31904 ft | 481 kts | 321° |
| 2026-05-05 17:48 | 45.87631 | -0.55621 | 31895 ft | 482 kts | 321° |
| 2026-05-05 17:48 | 45.92892 | -0.61604 | 31893 ft | 481 kts | 321° |
| 2026-05-05 17:49 | 45.98135 | -0.67574 | 31894 ft | 479 kts | 322° |
| 2026-05-05 17:49 | 46.03338 | -0.73514 | 31894 ft | 481 kts | 322° |
| 2026-05-05 17:50 | 46.08576 | -0.79511 | 31717 ft | 482 kts | 322° |
| 2026-05-05 17:50 | 46.11186 | -0.82508 | 31533 ft | 481 kts | 323° |
| 2026-05-05 17:50 | 46.13808 | -0.85521 | 31351 ft | 480 kts | 323° |
| 2026-05-05 17:50 | 46.16418 | -0.88521 | 31181 ft | 479 kts | 323° |
| 2026-05-05 17:51 | 46.19015 | -0.91512 | 30992 ft | 479 kts | 324° |
| 2026-05-05 17:51 | 46.21729 | -0.94286 | 30831 ft | 475 kts | 332° |
| 2026-05-05 17:51 | 46.24581 | -0.96703 | 30651 ft | 475 kts | 333° |
| 2026-05-05 17:51 | 46.27462 | -0.99052 | 30487 ft | 475 kts | 334° |
| 2026-05-05 17:52 | 46.30364 | -1.01354 | 30310 ft | 475 kts | 335° |
| 2026-05-05 17:52 | 46.33274 | -1.03633 | 30143 ft | 475 kts | 335° |
| 2026-05-05 17:52 | 46.36183 | -1.05905 | 29970 ft | 475 kts | 335° |
| 2026-05-05 17:53 | 46.41979 | -1.10446 | 29882 ft | 472 kts | 336° |
| 2026-05-05 17:53 | 46.47711 | -1.14966 | 29887 ft | 471 kts | 336° |
| 2026-05-05 17:54 | 46.53471 | -1.19531 | 29881 ft | 471 kts | 336° |
| 2026-05-05 17:54 | 46.59242 | -1.24120 | 29880 ft | 474 kts | 336° |
| 2026-05-05 17:55 | 46.65053 | -1.28752 | 29883 ft | 477 kts | 336° |
| 2026-05-05 17:55 | 46.70876 | -1.33406 | 29884 ft | 477 kts | 336° |
| 2026-05-05 17:56 | 46.76698 | -1.38073 | 29884 ft | 477 kts | 336° |
| 2026-05-05 17:56 | 46.82526 | -1.42755 | 29883 ft | 477 kts | 336° |
| 2026-05-05 17:57 | 46.88341 | -1.47437 | 29882 ft | 477 kts | 336° |
| 2026-05-05 17:57 | 46.94129 | -1.52109 | 29882 ft | 477 kts | 336° |
| 2026-05-05 17:58 | 46.99951 | -1.56819 | 29881 ft | 477 kts | 335° |
| 2026-05-05 17:58 | 47.05761 | -1.61533 | 29880 ft | 477 kts | 335° |
| 2026-05-05 17:59 | 47.11574 | -1.66261 | 29882 ft | 477 kts | 335° |
| 2026-05-05 17:59 | 47.17364 | -1.70983 | 29872 ft | 476 kts | 335° |
| 2026-05-05 18:00 | 47.23144 | -1.75708 | 29883 ft | 474 kts | 335° |
| 2026-05-05 18:00 | 47.28872 | -1.80402 | 29887 ft | 474 kts | 335° |
| 2026-05-05 18:01 | 47.34633 | -1.85135 | 29895 ft | 474 kts | 335° |
| 2026-05-05 18:01 | 47.40406 | -1.89889 | 29907 ft | 475 kts | 335° |
| 2026-05-05 18:02 | 47.46174 | -1.94652 | 29908 ft | 475 kts | 335° |
| 2026-05-05 18:02 | 47.51917 | -1.99406 | 29907 ft | 475 kts | 335° |
| 2026-05-05 18:03 | 47.57691 | -2.04199 | 29899 ft | 475 kts | 334° |
| 2026-05-05 18:03 | 47.63472 | -2.09009 | 29915 ft | 476 kts | 334° |
| 2026-05-05 18:04 | 47.69220 | -2.13802 | 29914 ft | 477 kts | 334° |
| 2026-05-05 18:04 | 47.75013 | -2.18647 | 29919 ft | 477 kts | 334° |
| 2026-05-05 18:05 | 47.80807 | -2.23505 | 29928 ft | 477 kts | 334° |
| 2026-05-05 18:05 | 47.86588 | -2.28365 | 29930 ft | 477 kts | 333° |
| 2026-05-05 18:06 | 47.91035 | -2.32113 | 29927 ft | 477 kts | 333° |
| 2026-05-05 18:07 | 47.94259 | -2.34834 | 29931 ft | 477 kts | 333° |
| 2026-05-05 18:07 | 48.00031 | -2.39713 | 29929 ft | 480 kts | 333° |
| 2026-05-05 18:08 | 48.05843 | -2.44641 | 29940 ft | 479 kts | 333° |
| 2026-05-05 18:08 | 48.11642 | -2.49572 | 29944 ft | 479 kts | 333° |
| 2026-05-05 18:09 | 48.17431 | -2.54507 | 29945 ft | 479 kts | 333° |
| 2026-05-05 18:09 | 48.23223 | -2.59455 | 29947 ft | 477 kts | 332° |
| 2026-05-05 18:09 | 48.26099 | -2.61918 | 29841 ft | 476 kts | 332° |
| 2026-05-05 18:10 | 48.28950 | -2.64363 | 29727 ft | 477 kts | 332° |
| 2026-05-05 18:10 | 48.31835 | -2.66840 | 29611 ft | 477 kts | 332° |
| 2026-05-05 18:10 | 48.34720 | -2.69321 | 29482 ft | 478 kts | 332° |
| 2026-05-05 18:10 | 48.37604 | -2.71803 | 29338 ft | 478 kts | 332° |
| 2026-05-05 18:11 | 48.40493 | -2.74293 | 29184 ft | 478 kts | 332° |
| 2026-05-05 18:11 | 48.43393 | -2.76794 | 29039 ft | 478 kts | 332° |
| 2026-05-05 18:11 | 48.46272 | -2.79282 | 28912 ft | 478 kts | 332° |
| 2026-05-05 18:11 | 48.49156 | -2.81778 | 28753 ft | 478 kts | 332° |
| 2026-05-05 18:12 | 48.52043 | -2.84281 | 28612 ft | 478 kts | 332° |
| 2026-05-05 18:12 | 48.54929 | -2.86785 | 28467 ft | 479 kts | 332° |
| 2026-05-05 18:12 | 48.57824 | -2.89301 | 28326 ft | 479 kts | 332° |
| 2026-05-05 18:12 | 48.60720 | -2.91820 | 28195 ft | 479 kts | 332° |
| 2026-05-05 18:13 | 48.63572 | -2.94303 | 28049 ft | 479 kts | 331° |
| 2026-05-05 18:13 | 48.66458 | -2.96821 | 27917 ft | 479 kts | 331° |
| 2026-05-05 18:13 | 48.69350 | -2.99347 | 27783 ft | 479 kts | 331° |
| 2026-05-05 18:13 | 48.72234 | -3.01870 | 27648 ft | 479 kts | 331° |
| 2026-05-05 18:14 | 48.75121 | -3.04398 | 27513 ft | 479 kts | 331° |
| 2026-05-05 18:14 | 48.78007 | -3.06928 | 27373 ft | 480 kts | 331° |
| 2026-05-05 18:14 | 48.80894 | -3.09463 | 27198 ft | 480 kts | 331° |
| 2026-05-05 18:14 | 48.83788 | -3.12008 | 27043 ft | 480 kts | 331° |
| 2026-05-05 18:15 | 48.86692 | -3.14565 | 26869 ft | 481 kts | 331° |
| 2026-05-05 18:15 | 48.89592 | -3.17123 | 26724 ft | 481 kts | 331° |
| 2026-05-05 18:15 | 48.92486 | -3.19678 | 26567 ft | 481 kts | 331° |
| 2026-05-05 18:15 | 48.95343 | -3.22204 | 26413 ft | 481 kts | 331° |
| 2026-05-05 18:16 | 48.98238 | -3.24766 | 26271 ft | 481 kts | 331° |
| 2026-05-05 18:16 | 49.01134 | -3.27334 | 26109 ft | 481 kts | 331° |
| 2026-05-05 18:16 | 49.04029 | -3.29905 | 25952 ft | 481 kts | 331° |
| 2026-05-05 18:16 | 49.06926 | -3.32481 | 25784 ft | 482 kts | 331° |
| 2026-05-05 18:17 | 49.09827 | -3.35062 | 25641 ft | 482 kts | 331° |
| 2026-05-05 18:17 | 49.12718 | -3.37638 | 25495 ft | 482 kts | 331° |
| 2026-05-05 18:17 | 49.15626 | -3.40233 | 25340 ft | 482 kts | 331° |
| 2026-05-05 18:17 | 49.18482 | -3.42785 | 25211 ft | 482 kts | 331° |
| 2026-05-05 18:18 | 49.21378 | -3.45376 | 25048 ft | 482 kts | 331° |
| 2026-05-05 18:18 | 49.24269 | -3.47967 | 24901 ft | 481 kts | 330° |
| 2026-05-05 18:18 | 49.27156 | -3.50559 | 24737 ft | 480 kts | 330° |
| 2026-05-05 18:18 | 49.30070 | -3.53049 | 24600 ft | 478 kts | 335° |
| 2026-05-05 18:19 | 49.33164 | -3.54939 | 24457 ft | 476 kts | 343° |
| 2026-05-05 18:19 | 49.36396 | -3.55979 | 24311 ft | 474 kts | 353° |
| 2026-05-05 18:19 | 49.39690 | -3.56466 | 24171 ft | 472 kts | 356° |
| 2026-05-05 18:19 | 49.42919 | -3.56799 | 24032 ft | 467 kts | 356° |
| 2026-05-05 18:20 | 49.46133 | -3.57098 | 23898 ft | 459 kts | 357° |
| 2026-05-05 18:20 | 49.48283 | -3.57294 | 23799 ft | 457 kts | 357° |
| 2026-05-05 18:20 | 49.52492 | -3.57676 | 23615 ft | 456 kts | 357° |
| 2026-05-05 18:20 | 49.55672 | -3.57965 | 23461 ft | 455 kts | 357° |
| 2026-05-05 18:21 | 49.58806 | -3.58250 | 23291 ft | 454 kts | 357° |
| 2026-05-05 18:21 | 49.61956 | -3.58537 | 23126 ft | 448 kts | 357° |
| 2026-05-05 18:21 | 49.64984 | -3.58815 | 23017 ft | 423 kts | 357° |
| 2026-05-05 18:21 | 49.67867 | -3.59079 | 22950 ft | 411 kts | 357° |
| 2026-05-05 18:22 | 49.69752 | -3.59251 | 22892 ft | 408 kts | 356° |
| 2026-05-05 18:22 | 49.72585 | -3.59509 | 22789 ft | 406 kts | 356° |
| 2026-05-05 18:22 | 49.75402 | -3.59768 | 22649 ft | 405 kts | 356° |
| 2026-05-05 18:22 | 49.78221 | -3.60027 | 22514 ft | 404 kts | 356° |
| 2026-05-05 18:23 | 49.81025 | -3.60285 | 22385 ft | 404 kts | 356° |
| 2026-05-05 18:23 | 49.83830 | -3.60543 | 22236 ft | 403 kts | 356° |
| 2026-05-05 18:23 | 49.86623 | -3.60800 | 22114 ft | 401 kts | 356° |
| 2026-05-05 18:23 | 49.89415 | -3.61058 | 21995 ft | 401 kts | 356° |
| 2026-05-05 18:24 | 49.92204 | -3.61314 | 21848 ft | 400 kts | 356° |
| 2026-05-05 18:24 | 49.94988 | -3.61572 | 21719 ft | 400 kts | 356° |
| 2026-05-05 18:24 | 49.97768 | -3.61829 | 21587 ft | 400 kts | 356° |
| 2026-05-05 18:24 | 50.00547 | -3.62087 | 21452 ft | 399 kts | 356° |
| 2026-05-05 18:25 | 50.03283 | -3.62341 | 21323 ft | 399 kts | 356° |
| 2026-05-05 18:25 | 50.05156 | -3.62515 | 21236 ft | 398 kts | 356° |
| 2026-05-05 18:25 | 50.08817 | -3.62855 | 21063 ft | 397 kts | 356° |
| 2026-05-05 18:25 | 50.11579 | -3.63113 | 20931 ft | 396 kts | 356° |
| 2026-05-05 18:26 | 50.14325 | -3.63368 | 20807 ft | 396 kts | 356° |
| 2026-05-05 18:26 | 50.17084 | -3.63625 | 20680 ft | 396 kts | 355° |
| 2026-05-05 18:26 | 50.19835 | -3.63883 | 20556 ft | 397 kts | 356° |
| 2026-05-05 18:26 | 50.22589 | -3.64140 | 20419 ft | 396 kts | 356° |
| 2026-05-05 18:27 | 50.25341 | -3.64398 | 20304 ft | 395 kts | 356° |
| 2026-05-05 18:27 | 50.28082 | -3.64655 | 20175 ft | 394 kts | 356° |
| 2026-05-05 18:27 | 50.30744 | -3.64904 | 19950 ft | 379 kts | 356° |
| 2026-05-05 18:27 | 50.33320 | -3.65145 | 19708 ft | 362 kts | 356° |
| 2026-05-05 18:28 | 50.38266 | -3.65610 | 19240 ft | 352 kts | 355° |
| 2026-05-05 18:28 | 50.40708 | -3.65841 | 18996 ft | 346 kts | 356° |
| 2026-05-05 18:28 | 50.43059 | -3.66062 | 18764 ft | 332 kts | 355° |
| 2026-05-05 18:29 | 50.45331 | -3.66277 | 18536 ft | 322 kts | 355° |
| 2026-05-05 18:29 | 50.47554 | -3.66459 | 18299 ft | 319 kts | 358° |
| 2026-05-05 18:29 | 50.49770 | -3.66280 | 18042 ft | 319 kts | 5° |
| 2026-05-05 18:29 | 50.51980 | -3.65895 | 17777 ft | 318 kts | 6° |
| 2026-05-05 18:30 | 50.54140 | -3.65481 | 17500 ft | 316 kts | 6° |
| 2026-05-05 18:30 | 50.56326 | -3.65058 | 17236 ft | 316 kts | 6° |
| 2026-05-05 18:30 | 50.58504 | -3.64637 | 16974 ft | 314 kts | 6° |
| 2026-05-05 18:30 | 50.60672 | -3.64219 | 16710 ft | 314 kts | 5° |
| 2026-05-05 18:31 | 50.62841 | -3.63804 | 16391 ft | 314 kts | 5° |
| 2026-05-05 18:31 | 50.65016 | -3.63388 | 16025 ft | 313 kts | 5° |
| 2026-05-05 18:31 | 50.67173 | -3.62975 | 15671 ft | 311 kts | 5° |
| 2026-05-05 18:31 | 50.69317 | -3.62565 | 15320 ft | 310 kts | 5° |
| 2026-05-05 18:32 | 50.71463 | -3.62154 | 14971 ft | 309 kts | 5° |
| 2026-05-05 18:32 | 50.73590 | -3.61747 | 14631 ft | 307 kts | 5° |
| 2026-05-05 18:32 | 50.75714 | -3.61339 | 14291 ft | 306 kts | 5° |
| 2026-05-05 18:32 | 50.77821 | -3.60933 | 13956 ft | 305 kts | 5° |
| 2026-05-05 18:33 | 50.79922 | -3.60529 | 13605 ft | 303 kts | 6° |
| 2026-05-05 18:33 | 50.81992 | -3.60131 | 13245 ft | 302 kts | 5° |
| 2026-05-05 18:33 | 50.84071 | -3.59729 | 13053 ft | 301 kts | 5° |
| 2026-05-05 18:33 | 50.86128 | -3.59162 | 12894 ft | 301 kts | 14° |
| 2026-05-05 18:34 | 50.88083 | -3.58054 | 12743 ft | 295 kts | 20° |
| 2026-05-05 18:34 | 50.89955 | -3.56778 | 12587 ft | 290 kts | 21° |
| 2026-05-05 18:34 | 50.91788 | -3.55464 | 12435 ft | 288 kts | 23° |
| 2026-05-05 18:34 | 50.93605 | -3.54134 | 12244 ft | 287 kts | 22° |
| 2026-05-05 18:35 | 50.95414 | -3.52798 | 11997 ft | 286 kts | 24° |
| 2026-05-05 18:35 | 50.97211 | -3.51462 | 11743 ft | 284 kts | 24° |
| 2026-05-05 18:35 | 50.98998 | -3.50130 | 11489 ft | 283 kts | 23° |
| 2026-05-05 18:35 | 51.00768 | -3.48808 | 11238 ft | 280 kts | 23° |
| 2026-05-05 18:36 | 51.02530 | -3.47492 | 10991 ft | 279 kts | 23° |
| 2026-05-05 18:36 | 51.04284 | -3.46170 | 10745 ft | 278 kts | 25° |
| 2026-05-05 18:36 | 51.05896 | -3.44500 | 10448 ft | 278 kts | 37° |
| 2026-05-05 18:36 | 51.07330 | -3.42507 | 10059 ft | 276 kts | 40° |
| 2026-05-05 18:37 | 51.08717 | -3.40404 | 9622 ft | 274 kts | 42° |
| 2026-05-05 18:37 | 51.10073 | -3.38290 | 9166 ft | 271 kts | 43° |
| 2026-05-05 18:37 | 51.11407 | -3.36187 | 8735 ft | 269 kts | 43° |
| 2026-05-05 18:37 | 51.12726 | -3.34097 | 8481 ft | 266 kts | 43° |
| 2026-05-05 18:38 | 51.14023 | -3.32036 | 8250 ft | 259 kts | 43° |
| 2026-05-05 18:38 | 51.15284 | -3.30029 | 8015 ft | 254 kts | 43° |
| 2026-05-05 18:38 | 51.16529 | -3.28046 | 7719 ft | 252 kts | 43° |
| 2026-05-05 18:38 | 51.17765 | -3.26075 | 7419 ft | 250 kts | 43° |
| 2026-05-05 18:39 | 51.18992 | -3.24117 | 7120 ft | 249 kts | 43° |
| 2026-05-05 18:39 | 51.20197 | -3.22193 | 6834 ft | 247 kts | 43° |
| 2026-05-05 18:39 | 51.21394 | -3.20277 | 6530 ft | 241 kts | 43° |
| 2026-05-05 18:39 | 51.22560 | -3.18410 | 6236 ft | 235 kts | 43° |
| 2026-05-05 18:40 | 51.23707 | -3.16573 | 5920 ft | 232 kts | 43° |
| 2026-05-05 18:40 | 51.24844 | -3.14750 | 5645 ft | 229 kts | 43° |
| 2026-05-05 18:40 | 51.25963 | -3.12957 | 5347 ft | 228 kts | 43° |
| 2026-05-05 18:40 | 51.27081 | -3.11162 | 5036 ft | 228 kts | 43° |
| 2026-05-05 18:41 | 51.28194 | -3.09375 | 4737 ft | 225 kts | 43° |
| 2026-05-05 18:41 | 51.29268 | -3.07648 | 4449 ft | 215 kts | 43° |
| 2026-05-05 18:41 | 51.30302 | -3.05985 | 4146 ft | 214 kts | 43° |
| 2026-05-05 18:41 | 51.31350 | -3.04301 | 3833 ft | 213 kts | 43° |
| 2026-05-05 18:42 | 51.32393 | -3.02629 | 3524 ft | 208 kts | 43° |
| 2026-05-05 18:42 | 51.33391 | -3.01037 | 3234 ft | 197 kts | 44° |
| 2026-05-05 18:42 | 51.34320 | -2.99559 | 3129 ft | 178 kts | 43° |
| 2026-05-05 18:42 | 51.35143 | -2.98241 | 3056 ft | 161 kts | 44° |
| 2026-05-05 18:43 | 51.35909 | -2.96954 | 2954 ft | 158 kts | 47° |
| 2026-05-05 18:43 | 51.36604 | -2.95621 | 2895 ft | 155 kts | 49° |
| 2026-05-05 18:43 | 51.37181 | -2.94158 | 2800 ft | 158 kts | 65° |
| 2026-05-05 18:43 | 51.37441 | -2.92432 | 2692 ft | 161 kts | 79° |
| 2026-05-05 18:44 | 51.37539 | -2.90648 | 2583 ft | 161 kts | 82° |
| 2026-05-05 18:44 | 51.37615 | -2.88858 | 2495 ft | 160 kts | 83° |
| 2026-05-05 18:44 | 51.37680 | -2.87132 | 2406 ft | 148 kts | 82° |
| 2026-05-05 18:44 | 51.37745 | -2.85544 | 2222 ft | 140 kts | 80° |
| 2026-05-05 18:45 | 51.37805 | -2.84019 | 2039 ft | 138 kts | 81° |
| 2026-05-05 18:45 | 51.37864 | -2.82484 | 1840 ft | 138 kts | 82° |
| 2026-05-05 18:45 | 51.37923 | -2.80927 | 1656 ft | 138 kts | 82° |
| 2026-05-05 18:45 | 51.37981 | -2.79406 | 1463 ft | 138 kts | 80° |
| 2026-05-05 18:46 | 51.38041 | -2.77862 | 1261 ft | 140 kts | 82° |
| 2026-05-05 18:46 | 51.38099 | -2.76307 | 1056 ft | 139 kts | 81° |
| 2026-05-05 18:46 | 51.38159 | -2.74754 | 848 ft | 140 kts | 80° |
| 2026-05-05 18:46 | 51.38219 | -2.73179 | 677 ft | 144 kts | 81° |
| 2026-05-05 18:47 | 51.38278 | -2.71780 | 617 ft | 92 kts | 87° |
| 2026-05-05 18:47 | 51.38295 | -2.71280 | 619 ft | 25 kts | 86° |
| 2026-05-05 18:47 | 51.38307 | -2.70999 | 619 ft | 26 kts | 85° |
| 2026-05-05 18:47 | 51.38319 | -2.70722 | 611 ft | 25 kts | 88° |
| 2026-05-05 18:48 | 51.38351 | -2.70505 | 620 ft | 10 kts | 25° |
| 2026-05-05 18:48 | 51.38433 | -2.70514 | 613 ft | 14 kts | 349° |
| 2026-05-05 18:48 | 51.38485 | -2.70598 | 624 ft | 10 kts | 285° |
| 2026-05-05 18:48 | 51.38520 | -2.70637 | 621 ft | 6 kts | 342° |
| 2026-05-05 18:49 | 51.38537 | -2.70680 | 620 ft | 5 kts | 260° |
| 2026-05-05 18:49 | 51.38533 | -2.70735 | 617 ft | 5 kts | 264° |
| 2026-05-05 18:49 | 51.38531 | -2.70781 | 616 ft | 0 kts | 265° |